Terminal Aerodrome Forecast
Issued by NWS Denver/Boulder, CO

Home | Current Version | Previous Version | Text Only | Print | Product List | Glossary On
Versions: 1 2 3 4 5 6 7 8 9 10 11 12 13 14 15 16 17 18 19 20 21 22 23 24 25 26 27 28 29 30 31 32 33 34 35 36 37 38 39 40 41 42 43 44 45 46 47 48 49 50
000
FTUS45 KBOU 221121
TAFDEN
TAF
KDEN 221121Z 2212/2318 15006KT P6SM VCSH BKN080 BKN120
     FM221400 VRB05KT P6SM SCT080 BKN120
     FM221900 14010KT P6SM VCTS SCT070CB BKN120
      TEMPO 2221/2301 VRB20G35KT 4SM TSRA BKN050CB
     FM230100 16012KT P6SM VCSH SCT050 BKN080
     FM230400 19007KT P6SM SCT050 BKN080
     FM230700 22007KT P6SM FEW080 SCT120=

USA.gov is the U.S. government's official web portal to all federal, state and local government web resources and services.